createdAt,value
2018-06-24T00:00:28.305Z,98626.80
2018-06-24T00:01:31.099Z,98623.70
2018-06-24T00:02:33.946Z,98616.47
2018-06-24T00:03:37.669Z,98617.09
2018-06-24T00:04:40.478Z,98619.44
2018-06-24T00:05:44.447Z,98620.89
2018-06-24T00:06:48.960Z,98616.30
2018-06-24T00:07:52.058Z,98615.80
2018-06-24T00:08:56.207Z,98615.50
2018-06-24T00:09:59.215Z,98619.52
2018-06-24T00:11:03.433Z,98612.61
2018-06-24T00:12:06.270Z,98612.52
2018-06-24T00:13:09.377Z,98602.14
2018-06-24T00:14:12.246Z,98610.42
2018-06-24T00:15:15.271Z,98601.61
2018-06-24T00:16:18.727Z,98603.30
2018-06-24T00:17:22.169Z,98596.62
2018-06-24T00:18:25.002Z,98600.08
2018-06-24T00:19:31.298Z,98600.25
2018-06-24T00:20:34.097Z,98596.23
2018-06-24T00:21:37.483Z,98600.41
2018-06-24T00:22:40.330Z,98591.33
2018-06-24T00:23:43.668Z,98598.89
2018-06-24T00:24:46.472Z,98595.12
2018-06-24T00:25:49.550Z,98593.35
2018-06-24T00:26:52.374Z,98600.34
2018-06-24T00:27:55.721Z,98595.12
2018-06-24T00:28:59.436Z,98594.55
2018-06-24T00:30:02.618Z,98590.00
2018-06-24T00:31:08.723Z,98593.35
2018-06-24T00:32:11.843Z,98594.14
2018-06-24T00:33:14.627Z,98592.48
2018-06-24T00:34:17.470Z,98596.32
2018-06-24T00:35:20.275Z,98593.76
2018-06-24T00:36:23.068Z,98590.70
2018-06-24T00:37:26.261Z,98590.78
2018-06-24T00:38:29.334Z,98589.17
2018-06-24T00:39:32.176Z,98590.63
2018-06-24T00:40:34.947Z,98599.38
2018-06-24T00:41:37.833Z,98594.88
2018-06-24T00:42:40.594Z,98591.91
2018-06-24T00:43:43.370Z,98587.10
2018-06-24T00:44:46.494Z,98592.48
2018-06-24T00:45:49.306Z,98590.00
2018-06-24T00:46:52.133Z,98582.84
2018-06-24T00:47:54.953Z,98584.92
2018-06-24T00:48:57.829Z,98590.20
2018-06-24T00:50:00.681Z,98588.10
2018-06-24T00:51:03.857Z,98584.83
2018-06-24T00:52:06.919Z,98590.66
2018-06-24T00:53:09.992Z,98596.44
2018-06-24T00:54:12.791Z,98586.11
2018-06-24T00:55:16.083Z,98585.53
2018-06-24T00:56:18.906Z,98586.33
2018-06-24T00:57:22.290Z,98586.48
2018-06-24T00:58:25.345Z,98586.36
2018-06-24T00:59:28.501Z,98585.08
2018-06-24T01:00:31.550Z,98579.67
2018-06-24T01:01:34.535Z,98575.49
2018-06-24T01:02:37.704Z,98579.03
2018-06-24T01:03:40.532Z,98582.54
2018-06-24T01:04:43.605Z,98576.30
2018-06-24T01:05:46.718Z,98579.19
2018-06-24T01:06:50.542Z,98576.13
2018-06-24T01:07:57.131Z,98579.33
2018-06-24T01:09:00.906Z,98577.95
2018-06-24T01:10:06.082Z,98573.21
2018-06-24T01:11:09.419Z,98572.97
2018-06-24T01:12:12.231Z,98571.04
2018-06-24T01:13:15.017Z,98571.29
2018-06-24T01:14:17.822Z,98563.52
2018-06-24T01:15:21.385Z,98568.81
2018-06-24T01:16:26.413Z,98567.81
2018-06-24T01:17:29.293Z,98564.23
2018-06-24T01:18:32.089Z,98559.25
2018-06-24T01:19:34.923Z,98564.38
2018-06-24T01:20:37.778Z,98560.29
2018-06-24T01:21:42.075Z,98562.20
2018-06-24T01:22:45.193Z,98563.02
2018-06-24T01:23:48.613Z,98559.72
2018-06-24T01:24:51.411Z,98559.89
2018-06-24T01:25:54.262Z,98560.21
2018-06-24T01:26:57.073Z,98563.02
2018-06-24T01:28:00.413Z,98561.31
2018-06-24T01:29:04.348Z,98551.69
2018-06-24T01:30:08.175Z,98556.89
2018-06-24T01:31:10.953Z,98551.94
2018-06-24T01:32:13.776Z,98545.61
2018-06-24T01:33:16.542Z,98554.03
2018-06-24T01:34:19.329Z,98545.36
2018-06-24T01:35:22.560Z,98540.52
2018-06-24T01:36:25.420Z,98542.88
2018-06-24T01:37:28.187Z,98543.67
2018-06-24T01:38:31.098Z,98545.36
2018-06-24T01:39:34.554Z,98543.74
2018-06-24T01:40:37.329Z,98544.48
2018-06-24T01:41:40.408Z,98543.34
2018-06-24T01:42:43.300Z,98540.08
2018-06-24T01:43:46.081Z,98535.64
2018-06-24T01:44:48.872Z,98537.80
2018-06-24T01:45:53.360Z,98541.59
2018-06-24T01:46:56.224Z,98541.02
2018-06-24T01:48:00.190Z,98536.59
2018-06-24T01:49:02.982Z,98537.87
2018-06-24T01:50:05.832Z,98529.87
2018-06-24T01:51:08.644Z,98533.02
2018-06-24T01:52:11.428Z,98533.66
2018-06-24T01:53:14.261Z,98529.98
2018-06-24T01:54:18.239Z,98532.16
2018-06-24T01:55:21.053Z,98528.05
2018-06-24T01:56:23.830Z,98533.56
2018-06-24T01:57:27.103Z,98534.51
2018-06-24T01:58:31.216Z,98535.95
2018-06-24T01:59:34.046Z,98535.38
2018-06-24T02:00:37.132Z,98534.48
2018-06-24T02:01:40.908Z,98532.05
2018-06-24T02:02:43.706Z,98532.55
2018-06-24T02:03:46.520Z,98537.43
2018-06-24T02:04:49.278Z,98533.27
2018-06-24T02:05:52.713Z,98531.98
2018-06-24T02:06:55.822Z,98531.51
2018-06-24T02:07:58.603Z,98532.47
2018-06-24T02:09:01.377Z,98529.03
2018-06-24T02:10:04.178Z,98529.45
2018-06-24T02:11:06.965Z,98527.27
2018-06-24T02:12:09.774Z,98527.84
2018-06-24T02:13:12.829Z,98529.48
2018-06-24T02:14:15.651Z,98526.44
2018-06-24T02:15:18.410Z,98521.84
2018-06-24T02:16:21.272Z,98517.84
2018-06-24T02:17:27.049Z,98519.92
2018-06-24T02:18:29.822Z,98516.38
2018-06-24T02:19:32.916Z,98510.93
2018-06-24T02:20:35.682Z,98507.34
2018-06-24T02:21:38.623Z,98514.23
2018-06-24T02:22:41.406Z,98509.27
2018-06-24T02:23:44.229Z,98504.79
2018-06-24T02:24:47.005Z,98505.41
2018-06-24T02:25:50.210Z,98506.38
2018-06-24T02:26:52.996Z,98506.13
2018-06-24T02:27:55.765Z,98510.39
2018-06-24T02:28:58.569Z,98508.45
2018-06-24T02:30:01.406Z,98505.98
2018-06-24T02:31:04.226Z,98505.31
2018-06-24T02:32:07.321Z,98499.14
2018-06-24T02:33:10.098Z,98493.10
2018-06-24T02:34:12.920Z,98495.75
2018-06-24T02:35:15.683Z,98498.74
2018-06-24T02:36:18.465Z,98494.91
2018-06-24T02:37:21.249Z,98501.56
2018-06-24T02:38:24.047Z,98504.39
2018-06-24T02:39:26.809Z,98499.55
2018-06-24T02:40:29.620Z,98501.23
2018-06-24T02:41:32.408Z,98498.26
2018-06-24T02:42:35.174Z,98500.16
2018-06-24T02:43:37.983Z,98495.03
2018-06-24T02:44:41.087Z,98497.91
2018-06-24T02:45:43.849Z,98499.84
2018-06-24T02:46:46.609Z,98494.76
2018-06-24T02:47:49.384Z,98493.30
2018-06-24T02:48:52.745Z,98499.64
2018-06-24T02:49:55.531Z,98498.05
2018-06-24T02:50:58.607Z,98490.45
2018-06-24T02:52:01.372Z,98495.58
2018-06-24T02:53:04.340Z,98495.33
2018-06-24T02:54:07.126Z,98492.28
2018-06-24T02:55:10.880Z,98490.45
2018-06-24T02:56:13.718Z,98489.31
2018-06-24T02:57:17.211Z,98485.45
2018-06-24T02:58:20.921Z,98486.42
2018-06-24T02:59:25.107Z,98490.33
2018-06-24T03:00:27.906Z,98488.28
2018-06-24T03:01:30.673Z,98493.59
2018-06-24T03:02:33.437Z,98493.02
2018-06-24T03:03:36.510Z,98493.27
2018-06-24T03:04:39.313Z,98486.31
2018-06-24T03:05:43.073Z,98496.20
2018-06-24T03:06:45.873Z,98491.15
2018-06-24T03:07:48.657Z,98495.12
2018-06-24T03:08:51.736Z,98495.62
2018-06-24T03:09:54.810Z,98495.16
2018-06-24T03:10:57.649Z,98495.23
2018-06-24T03:12:00.675Z,98495.41
2018-06-24T03:13:03.513Z,98497.88
2018-06-24T03:14:06.592Z,98495.34
2018-06-24T03:15:09.397Z,98495.02
2018-06-24T03:16:12.487Z,98491.01
2018-06-24T03:17:15.295Z,98490.25
2018-06-24T03:18:18.192Z,98492.55
2018-06-24T03:19:20.990Z,98495.73
2018-06-24T03:20:23.777Z,98493.40
2018-06-24T03:21:26.585Z,98498.99
2018-06-24T03:22:29.693Z,98500.95
2018-06-24T03:23:32.509Z,98504.89
2018-06-24T03:24:35.328Z,98495.26
2018-06-24T03:25:38.722Z,98501.81
2018-06-24T03:26:41.599Z,98501.42
2018-06-24T03:27:44.384Z,98499.17
2018-06-24T03:28:47.462Z,98501.64
2018-06-24T03:29:50.221Z,98496.22
2018-06-24T03:30:53.041Z,98498.95
2018-06-24T03:31:55.830Z,98497.69
2018-06-24T03:32:58.599Z,98498.87
2018-06-24T03:34:01.468Z,98498.77
2018-06-24T03:35:04.569Z,98496.22
2018-06-24T03:36:07.351Z,98501.70
2018-06-24T03:37:10.118Z,98497.70
2018-06-24T03:38:12.901Z,98498.30
2018-06-24T03:39:15.690Z,98493.31
2018-06-24T03:40:18.531Z,98493.23
2018-06-24T03:41:21.626Z,98490.78
2018-06-24T03:42:24.436Z,98489.91
2018-06-24T03:43:27.286Z,98494.22
2018-06-24T03:44:30.104Z,98492.06
2018-06-24T03:45:32.886Z,98491.35
2018-06-24T03:46:35.812Z,98484.73
2018-06-24T03:47:38.966Z,98492.99
2018-06-24T03:48:41.760Z,98494.28
2018-06-24T03:49:44.539Z,98494.16
2018-06-24T03:50:47.342Z,98491.35
2018-06-24T03:51:50.108Z,98496.86
2018-06-24T03:52:52.899Z,98498.84
2018-06-24T03:53:55.993Z,98497.02
2018-06-24T03:54:58.791Z,98494.14
2018-06-24T03:56:01.566Z,98495.27
2018-06-24T03:57:04.408Z,98496.86
2018-06-24T03:58:07.227Z,98499.99
2018-06-24T03:59:10.035Z,98500.16
2018-06-24T04:00:13.101Z,98497.52
2018-06-24T04:01:15.874Z,98511.62
2018-06-24T04:02:18.691Z,98500.48
2018-06-24T04:03:21.608Z,98495.58
2018-06-24T04:04:24.499Z,98494.14
2018-06-24T04:05:27.286Z,98495.14
2018-06-24T04:06:30.376Z,98498.57
2018-06-24T04:07:33.184Z,98501.30
2018-06-24T04:08:36.607Z,98496.80
2018-06-24T04:09:39.395Z,98502.83
2018-06-24T04:10:42.207Z,98500.97
2018-06-24T04:11:45.674Z,98497.92
2018-06-24T04:12:48.456Z,98498.25
2018-06-24T04:13:51.294Z,98494.73
2018-06-24T04:14:54.121Z,98493.69
2018-06-24T04:15:56.916Z,98496.42
2018-06-24T04:16:59.700Z,98497.30
2018-06-24T04:18:02.492Z,98499.45
2018-06-24T04:19:05.573Z,98501.06
2018-06-24T04:20:08.362Z,98504.03
2018-06-24T04:21:12.363Z,98496.18
2018-06-24T04:22:15.158Z,98506.02
2018-06-24T04:23:17.944Z,98510.03
2018-06-24T04:24:20.761Z,98509.00
2018-06-24T04:25:24.009Z,98512.13
2018-06-24T04:26:26.792Z,98514.78
2018-06-24T04:27:29.574Z,98513.25
2018-06-24T04:28:32.353Z,98509.81
2018-06-24T04:29:35.923Z,98513.25
2018-06-24T04:30:38.712Z,98509.57
2018-06-24T04:31:41.859Z,98507.87
2018-06-24T04:32:45.521Z,98507.00
2018-06-24T04:33:48.313Z,98506.68
2018-06-24T04:34:51.114Z,98512.13
2018-06-24T04:35:53.891Z,98507.72
2018-06-24T04:36:56.664Z,98504.20
2018-06-24T04:37:59.777Z,98506.44
2018-06-24T04:39:02.609Z,98502.18
2018-06-24T04:40:05.443Z,98514.45
2018-06-24T04:41:08.673Z,98511.09
2018-06-24T04:42:11.487Z,98508.29
2018-06-24T04:43:14.276Z,98507.30
2018-06-24T04:44:17.557Z,98504.98
2018-06-24T04:45:21.020Z,98510.80
2018-06-24T04:46:24.740Z,98509.52
2018-06-24T04:47:34.109Z,98511.23
2018-06-24T04:48:37.360Z,98512.13
2018-06-24T04:49:40.113Z,98511.72
2018-06-24T04:50:43.236Z,98510.85
2018-06-24T04:51:46.095Z,98511.72
2018-06-24T04:52:48.853Z,98516.80
2018-06-24T04:53:51.636Z,98515.81
2018-06-24T04:54:54.442Z,98513.77
2018-06-24T04:55:57.269Z,98515.72
2018-06-24T04:57:00.342Z,98517.30
2018-06-24T04:58:03.164Z,98513.01
2018-06-24T04:59:06.613Z,98514.60
2018-06-24T05:00:09.387Z,98513.56
2018-06-24T05:01:12.805Z,98506.33
2018-06-24T05:02:15.613Z,98510.35
2018-06-24T05:03:18.712Z,98511.89
2018-06-24T05:04:21.508Z,98513.58
2018-06-24T05:05:24.303Z,98514.45
2018-06-24T05:06:27.101Z,98516.55
2018-06-24T05:07:29.887Z,98512.22
2018-06-24T05:08:32.675Z,98510.36
2018-06-24T05:09:35.811Z,98513.83
2018-06-24T05:10:38.636Z,98510.38
2018-06-24T05:11:41.434Z,98514.14
2018-06-24T05:12:44.212Z,98509.16
2018-06-24T05:13:47.008Z,98514.98
2018-06-24T05:14:49.822Z,98505.77
2018-06-24T05:15:52.920Z,98507.15
2018-06-24T05:16:55.718Z,98510.36
2018-06-24T05:17:58.507Z,98509.38
2018-06-24T05:19:01.390Z,98507.78
2018-06-24T05:20:04.187Z,98514.42
2018-06-24T05:21:06.982Z,98509.58
2018-06-24T05:22:10.052Z,98508.88
2018-06-24T05:23:12.857Z,98513.41
2018-06-24T05:24:15.677Z,98509.70
2018-06-24T05:25:18.455Z,98507.30
2018-06-24T05:26:21.255Z,98509.31
2018-06-24T05:27:24.047Z,98510.51
2018-06-24T05:28:27.223Z,98502.84
2018-06-24T05:29:30.058Z,98509.65
2018-06-24T05:30:32.873Z,98510.33
2018-06-24T05:31:35.721Z,98505.68
2018-06-24T05:32:39.143Z,98506.72
2018-06-24T05:33:43.090Z,98510.11
2018-06-24T05:34:46.142Z,98509.14
2018-06-24T05:35:48.994Z,98510.77
2018-06-24T05:36:52.124Z,98506.67
2018-06-24T05:37:54.946Z,98509.87
2018-06-24T05:38:59.345Z,98507.02
2018-06-24T05:40:02.136Z,98506.38
2018-06-24T05:41:05.313Z,98504.95
2018-06-24T05:42:08.167Z,98507.92
2018-06-24T05:43:11.001Z,98510.59
2018-06-24T05:44:13.814Z,98509.05
2018-06-24T05:45:16.614Z,98509.69
2018-06-24T05:46:19.393Z,98501.07
2018-06-24T05:47:22.156Z,98497.03
2018-06-24T05:48:24.985Z,98501.70
2018-06-24T05:49:27.780Z,98499.01
2018-06-24T05:50:30.788Z,98503.31
2018-06-24T05:51:34.537Z,98504.61
2018-06-24T05:52:37.327Z,98510.77
2018-06-24T05:53:40.401Z,98503.83
2018-06-24T05:54:43.418Z,98503.66
2018-06-24T05:55:46.819Z,98509.05
2018-06-24T05:56:49.615Z,98506.54
2018-06-24T05:57:52.790Z,98508.14
2018-06-24T05:58:56.111Z,98505.40
2018-06-24T05:59:59.248Z,98508.20
2018-06-24T06:01:02.028Z,98504.92
2018-06-24T06:02:04.826Z,98509.05
2018-06-24T06:03:08.036Z,98505.88
2018-06-24T06:04:10.816Z,98512.78
2018-06-24T06:05:13.630Z,98509.02
2018-06-24T06:06:16.745Z,98508.90
2018-06-24T06:07:19.563Z,98507.74
2018-06-24T06:08:22.405Z,98509.41
2018-06-24T06:09:25.187Z,98503.27
2018-06-24T06:10:28.077Z,98509.41
2018-06-24T06:11:30.825Z,98512.05
2018-06-24T06:12:34.178Z,98511.08
2018-06-24T06:13:37.560Z,98513.41
2018-06-24T06:14:40.374Z,98513.77
2018-06-24T06:15:43.156Z,98511.38
2018-06-24T06:16:45.956Z,98510.49
2018-06-24T06:17:48.756Z,98514.31
2018-06-24T06:18:51.837Z,98510.70
2018-06-24T06:19:54.749Z,98513.88
2018-06-24T06:20:57.563Z,98511.82
2018-06-24T06:22:00.386Z,98506.77
2018-06-24T06:23:03.833Z,98504.22
2018-06-24T06:24:06.632Z,98504.09
2018-06-24T06:25:09.830Z,98507.96
2018-06-24T06:26:12.668Z,98508.03
2018-06-24T06:27:15.482Z,98502.61
2018-06-24T06:28:18.582Z,98509.09
2018-06-24T06:29:21.374Z,98508.78
2018-06-24T06:30:24.250Z,98506.64
2018-06-24T06:31:27.292Z,98512.45
2018-06-24T06:32:30.694Z,98511.13
2018-06-24T06:33:33.527Z,98506.02
2018-06-24T06:34:37.942Z,98510.08
2018-06-24T06:35:43.734Z,98509.69
2018-06-24T06:36:46.563Z,98505.04
2018-06-24T06:37:49.643Z,98505.92
2018-06-24T06:38:52.463Z,98508.89
2018-06-24T06:39:55.267Z,98506.86
2018-06-24T06:40:58.055Z,98509.09
2018-06-24T06:42:00.859Z,98504.41
2018-06-24T06:43:06.376Z,98507.77
2018-06-24T06:44:09.443Z,98508.25
2018-06-24T06:45:12.277Z,98508.94
2018-06-24T06:46:15.213Z,98511.45
2018-06-24T06:47:17.979Z,98508.80
2018-06-24T06:48:20.814Z,98514.44
2018-06-24T06:49:23.597Z,98510.91
2018-06-24T06:50:26.640Z,98517.66
2018-06-24T06:51:29.437Z,98514.67
2018-06-24T06:52:32.233Z,98516.18
2018-06-24T06:53:35.057Z,98508.89
2018-06-24T06:54:38.313Z,98507.76
2018-06-24T06:55:41.130Z,98505.87
2018-06-24T06:56:45.825Z,98518.77
2018-06-24T06:57:48.648Z,98511.16
2018-06-24T06:58:51.453Z,98519.77
2018-06-24T06:59:55.023Z,98511.31
2018-06-24T07:00:57.863Z,98512.94
2018-06-24T07:02:00.633Z,98515.16
2018-06-24T07:03:03.759Z,98517.92
2018-06-24T07:04:07.554Z,98513.37
2018-06-24T07:05:10.317Z,98507.66
2018-06-24T07:06:13.184Z,98506.77
2018-06-24T07:07:15.961Z,98506.30
2018-06-24T07:08:18.752Z,98503.55
2018-06-24T07:09:21.847Z,98509.73
2018-06-24T07:10:24.641Z,98512.59
2018-06-24T07:11:27.434Z,98514.30
2018-06-24T07:12:30.214Z,98516.93
2018-06-24T07:13:32.968Z,98517.17
2018-06-24T07:14:35.781Z,98521.16
2018-06-24T07:15:39.535Z,98526.17
2018-06-24T07:16:42.355Z,98527.51
2018-06-24T07:17:45.128Z,98524.31
2018-06-24T07:18:47.914Z,98524.44
2018-06-24T07:19:50.728Z,98521.81
2018-06-24T07:20:53.517Z,98518.87
2018-06-24T07:21:56.463Z,98515.51
2018-06-24T07:22:59.249Z,98519.05
2018-06-24T07:24:02.733Z,98515.17
2018-06-24T07:25:06.139Z,98516.13
2018-06-24T07:26:09.083Z,98521.52
2018-06-24T07:27:11.917Z,98522.97
2018-06-24T07:28:15.029Z,98524.35
2018-06-24T07:29:17.817Z,98522.19
2018-06-24T07:30:21.353Z,98524.91
2018-06-24T07:31:24.189Z,98521.03
2018-06-24T07:32:27.914Z,98523.33
2018-06-24T07:33:30.752Z,98515.79
2018-06-24T07:34:36.862Z,98516.02
2018-06-24T07:35:39.797Z,98523.89
2018-06-24T07:36:58.035Z,98520.92
2018-06-24T07:38:04.492Z,98523.91
2018-06-24T07:39:07.304Z,98525.62
2018-06-24T07:40:11.493Z,98523.34
2018-06-24T07:41:14.951Z,98521.05
2018-06-24T07:42:17.727Z,98518.65
2018-06-24T07:43:20.518Z,98519.78
2018-06-24T07:44:23.314Z,98519.08
2018-06-24T07:45:26.276Z,98521.16
2018-06-24T07:46:29.454Z,98518.06
2018-06-24T07:47:37.596Z,98520.68
2018-06-24T07:48:46.980Z,98521.59
2018-06-24T07:49:54.908Z,98527.96
2018-06-24T07:51:00.427Z,98526.20
2018-06-24T07:52:04.297Z,98530.89
2018-06-24T07:53:12.798Z,98522.16
2018-06-24T07:54:17.209Z,98526.53
2018-06-24T07:56:53.253Z,98526.77
2018-06-24T07:57:57.296Z,98526.79
2018-06-24T07:59:00.586Z,98527.63
2018-06-24T08:00:05.236Z,98527.17
2018-06-24T08:01:10.260Z,98522.11
2018-06-24T08:02:13.085Z,98525.38
2018-06-24T08:03:16.982Z,98519.75
2018-06-24T08:04:20.498Z,98521.19
2018-06-24T08:05:23.579Z,98517.36
2018-06-24T08:06:26.379Z,98513.11
2018-06-24T08:07:30.042Z,98517.66
2018-06-24T08:08:32.907Z,98525.08
2018-06-24T08:09:37.041Z,98522.28
2018-06-24T08:10:40.681Z,98519.39
2018-06-24T08:11:43.535Z,98515.66
2018-06-24T08:12:47.322Z,98518.11
2018-06-24T08:13:51.136Z,98517.02
2018-06-24T08:14:53.965Z,98504.78
2018-06-24T08:15:56.729Z,98505.88
2018-06-24T08:16:59.805Z,98508.41
2018-06-24T08:18:02.653Z,98508.83
2018-06-24T08:19:05.450Z,98508.50
2018-06-24T08:20:08.261Z,98513.19
2018-06-24T08:21:11.573Z,98518.16
2018-06-24T08:22:15.202Z,98507.63
2018-06-24T08:23:18.299Z,98513.36
2018-06-24T08:24:21.712Z,98514.02
2018-06-24T08:25:25.278Z,98513.39
2018-06-24T08:26:29.071Z,98513.15
2018-06-24T08:27:32.881Z,98515.75
2018-06-24T08:28:35.752Z,98516.16
2018-06-24T08:29:38.900Z,98511.54
2018-06-24T08:30:41.684Z,98515.11
2018-06-24T08:31:45.503Z,98513.80
2018-06-24T08:32:48.600Z,98517.27
2018-06-24T08:33:52.426Z,98517.72
2018-06-24T08:34:55.236Z,98515.33
2018-06-24T08:35:58.394Z,98515.33
2018-06-24T08:37:01.211Z,98517.09
2018-06-24T08:38:05.204Z,98512.22
2018-06-24T08:39:09.029Z,98514.58
2018-06-24T08:40:11.897Z,98506.42
2018-06-24T08:41:15.822Z,98507.34
2018-06-24T08:42:19.545Z,98503.23
2018-06-24T08:43:23.927Z,98502.83
2018-06-24T08:44:29.365Z,98508.63
2018-06-24T08:45:34.331Z,98508.52
2018-06-24T08:46:37.160Z,98514.44
2018-06-24T08:47:41.793Z,98512.76
2018-06-24T08:48:47.627Z,98511.95
2018-06-24T08:49:51.357Z,98512.40
2018-06-24T08:50:54.297Z,98518.22
2018-06-24T08:51:59.866Z,98524.95
2018-06-24T08:53:09.686Z,98511.90
2018-06-24T08:54:13.743Z,98512.33
2018-06-24T08:55:18.497Z,98520.71
2018-06-24T08:56:21.382Z,98513.56
2018-06-24T08:57:24.184Z,98515.06
2018-06-24T08:58:27.867Z,98517.23
2018-06-24T08:59:30.642Z,98515.98
2018-06-24T09:00:35.539Z,98517.03
2018-06-24T09:01:38.893Z,98517.95
2018-06-24T09:02:41.946Z,98514.06
2018-06-24T09:03:47.421Z,98514.33
2018-06-24T09:04:50.221Z,98512.30
2018-06-24T09:05:52.987Z,98510.52
2018-06-24T09:06:55.785Z,98505.74
2018-06-24T09:07:59.460Z,98515.52
2018-06-24T09:09:03.163Z,98517.75
2018-06-24T09:10:05.976Z,98509.84
2018-06-24T09:11:09.719Z,98513.86
2018-06-24T09:12:13.469Z,98510.97
2018-06-24T09:13:16.261Z,98509.27
2018-06-24T09:14:21.640Z,98506.00
2018-06-24T09:15:25.644Z,98513.33
2018-06-24T09:16:29.172Z,98513.47
2018-06-24T09:17:33.163Z,98517.95
2018-06-24T09:18:37.240Z,98510.80
2018-06-24T09:19:42.098Z,98514.39
2018-06-24T09:20:45.247Z,98507.17
2018-06-24T09:21:49.760Z,98511.51
2018-06-24T09:22:56.338Z,98519.42
2018-06-24T09:24:00.482Z,98520.33
2018-06-24T09:25:04.158Z,98515.98
2018-06-24T09:26:08.922Z,98516.56
2018-06-24T09:27:12.683Z,98513.22
2018-06-24T09:28:15.955Z,98512.94
2018-06-24T09:29:19.622Z,98516.98
2018-06-24T09:30:23.055Z,98519.00
2018-06-24T09:31:25.884Z,98524.44
2018-06-24T09:32:28.855Z,98518.02
2018-06-24T09:33:33.609Z,98513.27
2018-06-24T09:34:37.316Z,98512.05
2018-06-24T09:35:41.345Z,98514.74
2018-06-24T09:36:45.963Z,98515.21
2018-06-24T09:37:48.847Z,98519.79
2018-06-24T09:38:53.838Z,98520.53
2018-06-24T09:40:00.607Z,98517.30
2018-06-24T09:41:04.308Z,98515.44
2018-06-24T09:42:10.109Z,98511.85
2018-06-24T09:43:19.616Z,98514.09
2018-06-24T09:44:34.178Z,98506.81
2018-06-24T09:45:37.784Z,98509.66
2018-06-24T09:46:46.432Z,98504.61
2018-06-24T09:47:49.707Z,98507.92
2018-06-24T09:48:52.524Z,98507.20
2018-06-24T09:49:58.554Z,98514.85
2018-06-24T09:51:03.599Z,98510.86
2018-06-24T09:52:10.594Z,98509.40
2018-06-24T09:53:13.714Z,98508.50
2018-06-24T09:54:16.510Z,98513.47
2018-06-24T09:55:19.320Z,98513.58
2018-06-24T09:56:22.415Z,98512.53
2018-06-24T09:57:27.405Z,98509.27
2018-06-24T09:58:31.351Z,98509.55
2018-06-24T09:59:34.240Z,98513.19
2018-06-24T10:00:38.084Z,98507.17
2018-06-24T10:01:43.034Z,98503.96
2018-06-24T10:02:47.038Z,98505.28
2018-06-24T10:03:50.177Z,98500.06
2018-06-24T10:04:54.986Z,98500.14
2018-06-24T10:05:57.777Z,98504.77
2018-06-24T10:07:00.605Z,98504.47
2018-06-24T10:08:03.461Z,98503.81
2018-06-24T10:09:06.387Z,98500.62
2018-06-24T10:10:10.285Z,98500.83
2018-06-24T10:11:13.519Z,98502.11
2018-06-24T10:12:16.324Z,98504.93
2018-06-24T10:13:19.954Z,98495.09
2018-06-24T10:14:23.343Z,98499.03
2018-06-24T10:15:27.246Z,98488.88
2018-06-24T10:16:31.600Z,98497.83
2018-06-24T10:17:36.429Z,98492.19
2018-06-24T10:18:40.424Z,98492.77
2018-06-24T10:19:46.997Z,98498.30
2018-06-24T10:20:55.569Z,98494.41
2018-06-24T10:21:59.348Z,98496.29
2018-06-24T10:23:02.784Z,98498.45
2018-06-24T10:24:06.477Z,98498.41
2018-06-24T10:25:10.078Z,98495.20
2018-06-24T10:26:12.855Z,98504.86
2018-06-24T10:27:17.026Z,98501.95
2018-06-24T10:28:24.150Z,98501.56
2018-06-24T10:29:27.027Z,98502.36
2018-06-24T10:30:31.237Z,98500.45
2018-06-24T10:31:34.583Z,98505.33
2018-06-24T10:32:37.374Z,98498.98
2018-06-24T10:33:41.860Z,98504.91
2018-06-24T10:34:44.705Z,98500.36
2018-06-24T10:35:47.490Z,98501.30
2018-06-24T10:36:50.544Z,98497.42
2018-06-24T10:37:53.336Z,98498.05
2018-06-24T10:38:56.440Z,98493.69
2018-06-24T10:40:02.854Z,98497.88
2018-06-24T10:41:06.462Z,98496.73
2018-06-24T10:42:09.396Z,98501.63
2018-06-24T10:43:12.733Z,98501.97
2018-06-24T10:44:15.535Z,98502.31
2018-06-24T10:45:20.108Z,98507.53
2018-06-24T10:46:24.725Z,98503.53
2018-06-24T10:47:28.527Z,98499.73
2018-06-24T10:48:35.330Z,98502.30
2018-06-24T10:49:42.825Z,98504.05
2018-06-24T10:50:46.556Z,98498.45
2018-06-24T10:51:49.930Z,98498.87
2018-06-24T10:52:54.618Z,98501.98
2018-06-24T10:53:59.235Z,98494.84
2018-06-24T10:55:03.957Z,98504.05
2018-06-24T10:56:10.454Z,98493.88
2018-06-24T10:57:16.832Z,98493.73
2018-06-24T10:58:20.561Z,98497.08
2018-06-24T10:59:25.361Z,98491.69
2018-06-24T11:00:28.712Z,98490.22
2018-06-24T11:01:34.795Z,98496.47
2018-06-24T11:02:39.308Z,98490.20
2018-06-24T11:03:43.698Z,98501.36
2018-06-24T11:05:53.976Z,98498.09
2018-06-24T11:06:56.750Z,98500.70
2018-06-24T11:08:00.903Z,98506.44
2018-06-24T11:09:05.243Z,98503.75
2018-06-24T11:10:09.045Z,98498.09
2018-06-24T11:11:16.562Z,98502.16
2018-06-24T11:12:19.402Z,98500.28
2018-06-24T11:13:24.758Z,98500.63
2018-06-24T11:14:30.283Z,98498.09
2018-06-24T11:15:33.958Z,98499.63
2018-06-24T11:16:38.994Z,98500.77
2018-06-24T11:17:43.384Z,98502.64
2018-06-24T11:18:47.522Z,98504.12
2018-06-24T11:19:50.413Z,98499.84
2018-06-24T11:20:56.405Z,98510.13
2018-06-24T11:22:02.455Z,98497.64
2018-06-24T11:23:06.301Z,98504.61
2018-06-24T11:24:09.160Z,98493.69
2018-06-24T11:25:12.620Z,98490.67
2018-06-24T11:26:16.301Z,98503.94
2018-06-24T11:27:21.940Z,98502.72
2018-06-24T11:28:26.199Z,98497.94
2018-06-24T11:29:29.251Z,98491.27
2018-06-24T11:30:32.754Z,98497.27
2018-06-24T11:31:35.593Z,98494.74
2018-06-24T11:32:38.542Z,98491.27
2018-06-24T11:33:41.432Z,98499.20
2018-06-24T11:34:44.581Z,98497.24
2018-06-24T11:35:47.435Z,98501.91
2018-06-24T11:36:50.345Z,98499.87
2018-06-24T11:37:53.311Z,98491.97
2018-06-24T11:38:56.151Z,98500.73
2018-06-24T11:39:59.123Z,98498.64
2018-06-24T11:41:02.258Z,98489.52
2018-06-24T11:42:08.850Z,98491.08
2018-06-24T11:43:12.626Z,98491.75
2018-06-24T11:44:15.484Z,98478.34
2018-06-24T11:45:18.305Z,98488.11
2018-06-24T11:46:21.190Z,98495.45
2018-06-24T11:47:24.338Z,98496.80
2018-06-24T11:48:27.287Z,98487.74
2018-06-24T11:49:30.291Z,98490.27
2018-06-24T11:50:33.745Z,98491.24
2018-06-24T11:51:39.234Z,98478.32
2018-06-24T11:52:42.743Z,98481.88
2018-06-24T11:53:46.010Z,98486.86
2018-06-24T11:54:48.841Z,98479.01
2018-06-24T11:55:53.280Z,98479.11
2018-06-24T11:56:56.721Z,98480.62
2018-06-24T11:57:59.558Z,98483.84
2018-06-24T11:59:04.001Z,98475.52
2018-06-24T12:00:07.331Z,98483.67
2018-06-24T12:01:11.376Z,98479.34
2018-06-24T12:02:14.182Z,98471.81
2018-06-24T12:03:17.075Z,98478.91
2018-06-24T12:04:21.661Z,98474.38
2018-06-24T12:05:26.583Z,98462.16
2018-06-24T12:06:30.290Z,98464.07
2018-06-24T12:07:34.085Z,98469.20
2018-06-24T12:08:37.361Z,98464.03
2018-06-24T12:09:41.625Z,98464.47
2018-06-24T12:10:44.744Z,98463.13
2018-06-24T12:11:49.595Z,98461.84
2018-06-24T12:12:54.095Z,98462.78
2018-06-24T12:13:57.002Z,98459.37
2018-06-24T12:15:00.607Z,98462.27
2018-06-24T12:16:05.366Z,98466.80
2018-06-24T12:17:09.298Z,98469.17
2018-06-24T12:18:12.155Z,98471.38
2018-06-24T12:19:15.400Z,98467.36
2018-06-24T12:20:18.201Z,98469.95
2018-06-24T12:21:21.026Z,98466.69
2018-06-24T12:22:23.951Z,98473.30
2018-06-24T12:23:28.911Z,98466.70
2018-06-24T12:24:32.575Z,98463.84
2018-06-24T12:25:36.647Z,98464.02
2018-06-24T12:26:39.494Z,98466.45
2018-06-24T12:27:42.270Z,98460.59